Time;durP1;ratioP1;P1;durP2;ratioP2;P2;SDS_P1;SDS_P2;PMS_P1;PMS_P2;Temp;Humidity;BMP_temperature;BMP_pressure;BME280_temperature;BME280_humidity;BME280_pressure;Samples;Min_cycle;Max_cycle;Signal;HPM_P1;HPM_P2
2022/07/28 00:03:30;;;;;;;3.45;1.10;;;;;;;13.99;53.30;100273.59;10417808;28;20060;-70
2022/07/28 00:08:32;;;;;;;2.22;1.02;;;;;;;13.93;53.02;100283.53;10416798;28;20041;-70
2022/07/28 00:13:33;;;;;;;3.05;1.30;;;;;;;13.70;53.91;100284.50;10398685;28;20046;-69
2022/07/28 00:18:35;;;;;;;2.53;0.98;;;;;;;13.63;53.93;100286.50;10416475;28;20048;-69
2022/07/28 00:23:37;;;;;;;1.88;0.90;;;;;;;13.81;53.37;100291.06;10398496;28;20128;-69
2022/07/28 00:28:40;;;;;;;4.97;1.30;;;;;;;13.52;55.03;100284.31;10417097;28;20041;-69
2022/07/28 00:33:42;;;;;;;1.27;0.77;;;;;;;13.30;55.35;100286.94;10416939;28;20034;-69
2022/07/28 00:38:43;;;;;;;2.90;1.17;;;;;;;13.23;55.99;100281.94;10399753;28;20055;-70
2022/07/28 00:43:50;;;;;;;3.30;1.00;;;;;;;13.44;55.14;100278.47;10401135;28;20045;-69
2022/07/28 00:48:53;;;;;;;2.28;1.00;;;;;;;13.73;54.81;100282.59;10416522;28;20499;-70
2022/07/28 00:53:56;;;;;;;2.47;0.77;;;;;;;13.57;55.19;100276.19;10415638;28;20052;-69
2022/07/28 00:58:58;;;;;;;6.43;1.10;;;;;;;13.27;56.37;100279.13;10416303;28;20490;-69
2022/07/28 01:04:01;;;;;;;4.25;1.00;;;;;;;13.19;56.04;100280.31;10404025;28;20041;-69
2022/07/28 01:09:18;;;;;;;3.90;1.55;;;;;;;13.26;55.68;100271.28;10422777;28;20046;-69
2022/07/28 01:14:30;;;;;;;2.03;1.10;;;;;;;13.28;55.60;100267.66;10422365;28;20052;-69
2022/07/28 01:19:35;;;;;;;1.92;0.88;;;;;;;12.90;56.53;100261.19;10405820;28;20379;-69
2022/07/28 01:24:48;;;;;;;3.17;0.82;;;;;;;12.71;57.75;100276.84;10422407;28;20038;-69
2022/07/28 01:30:22;;;;;;;1.83;0.90;;;;;;;12.59;57.95;100275.50;10421583;28;20487;-70
2022/07/28 01:35:34;;;;;;;1.55;0.90;;;;;;;12.71;57.65;100281.25;10403845;28;20476;-68
2022/07/28 01:40:39;;;;;;;2.22;0.90;;;;;;;12.81;57.81;100291.41;10421384;28;20045;-70
2022/07/28 01:45:43;;;;;;;3.25;1.10;;;;;;;12.98;57.17;100274.09;10421640;28;20049;-70
2022/07/28 01:50:47;;;;;;;2.47;0.88;;;;;;;12.60;58.32;100277.22;10421440;28;20045;-69
2022/07/28 01:55:50;;;;;;;2.75;1.00;;;;;;;12.32;59.57;100276.50;10421784;28;20041;-70
2022/07/28 02:00:53;;;;;;;1.08;0.70;;;;;;;12.44;59.21;100275.16;10420657;28;20466;-70
2022/07/28 02:05:57;;;;;;;3.50;0.88;;;;;;;12.52;58.70;100271.34;10421904;28;20041;-70
2022/07/28 02:16:22;;;;;;;3.65;1.10;;;;;;;12.42;59.48;100269.97;10420402;28;20059;-70
2022/07/28 02:21:25;;;;;;;1.90;1.13;;;;;;;12.37;59.38;100272.75;10420651;28;20414;-69
2022/07/28 02:26:33;;;;;;;4.60;1.15;;;;;;;12.09;60.50;100274.66;10420850;28;20060;-70
2022/07/28 02:32:00;;;;;;;3.50;1.20;;;;;;;12.09;60.32;100267.59;10401855;28;20049;-70
2022/07/28 02:37:04;;;;;;;1.25;0.90;;;;;;;12.17;60.08;100271.72;10419786;28;20522;-70
2022/07/28 02:42:17;;;;;;;2.90;1.02;;;;;;;11.99;60.84;100283.75;10420088;28;20041;-70
2022/07/28 02:47:23;;;;;;;1.83;0.98;;;;;;;11.93;61.27;100286.59;10420158;28;20390;-70
2022/07/28 02:52:26;;;;;;;2.08;1.20;;;;;;;11.71;61.52;100292.53;10420982;28;20046;-70
2022/07/28 02:57:30;;;;;;;4.00;0.95;;;;;;;11.63;61.55;100300.69;10402675;28;20041;-70
2022/07/28 03:02:35;;;;;;;2.63;0.80;;;;;;;11.57;61.77;100303.53;10419700;28;20574;-71
2022/07/28 03:07:37;;;;;;;2.47;1.02;;;;;;;11.30;63.00;100304.38;10420207;28;20042;-69
2022/07/28 03:12:54;;;;;;;2.58;1.25;;;;;;;11.11;63.95;100306.69;10418585;28;20041;-70
2022/07/28 03:17:55;;;;;;;4.75;1.40;;;;;;;11.10;64.51;100318.97;10419232;28;20124;-70
2022/07/28 03:22:58;;;;;;;3.33;1.52;;;;;;;10.87;66.28;100313.53;10400889;28;20055;-70
2022/07/28 03:28:00;;;;;;;4.95;1.35;;;;;;;11.02;65.33;100321.00;10417877;28;20054;-68
2022/07/28 03:33:02;;;;;;;3.50;1.55;;;;;;;11.47;64.00;100335.47;10399220;28;20053;-69
2022/07/28 03:38:12;;;;;;;5.93;1.58;;;;;;;11.30;64.26;100334.19;10416691;28;20054;-69
2022/07/28 03:43:20;;;;;;;3.22;2.05;;;;;;;11.05;65.56;100339.28;10416670;28;20045;-69
2022/07/28 03:48:28;;;;;;;4.00;1.98;;;;;;;11.15;65.28;100345.16;10416690;28;20034;-70
2022/07/28 03:53:29;;;;;;;4.93;2.33;;;;;;;11.16;65.81;100343.41;10417277;28;20034;-70
2022/07/28 03:58:31;;;;;;;6.03;2.10;;;;;;;11.15;66.51;100344.28;10416390;28;20058;-69
2022/07/28 04:03:33;;;;;;;3.65;2.28;;;;;;;11.22;66.15;100343.22;10416990;28;20418;-69
2022/07/28 04:08:43;;;;;;;7.45;2.65;;;;;;;11.23;66.26;100340.53;10417999;28;20076;-69
2022/07/28 04:13:45;;;;;;;8.52;2.55;;;;;;;11.22;66.88;100344.06;10417234;28;20041;-69
2022/07/28 04:18:47;;;;;;;3.60;2.13;;;;;;;11.34;66.70;100337.59;10416985;28;20045;-69
2022/07/28 04:23:49;;;;;;;6.07;2.90;;;;;;;11.62;65.73;100337.59;10416107;28;20546;-70
2022/07/28 04:28:50;;;;;;;8.40;2.00;;;;;;;11.65;65.53;100329.63;10415784;28;20529;-70
2022/07/28 04:33:52;;;;;;;3.53;2.25;;;;;;;11.82;64.92;100332.59;10416692;28;20046;-70
2022/07/28 04:38:56;;;;;;;3.67;1.85;;;;;;;12.17;63.49;100335.84;10423411;28;20511;-69
2022/07/28 04:43:58;;;;;;;3.53;1.67;;;;;;;12.33;62.94;100342.31;10424000;28;20045;-70
2022/07/28 04:48:59;;;;;;;4.78;1.65;;;;;;;12.40;62.53;100334.22;10423248;28;20155;-70
2022/07/28 04:54:02;;;;;;;3.42;1.40;;;;;;;12.18;63.17;100337.59;10406226;28;20550;-71
2022/07/28 04:59:03;;;;;;;3.85;1.77;;;;;;;12.30;62.05;100331.88;10424551;28;20050;-70
2022/07/28 05:04:05;;;;;;;2.95;1.48;;;;;;;12.40;61.08;100326.31;10423497;28;20083;-69
2022/07/28 05:09:08;;;;;;;3.88;1.90;;;;;;;12.61;60.71;100330.81;10407245;28;20483;-69
2022/07/28 05:14:09;;;;;;;4.20;1.20;;;;;;;12.73;60.17;100332.16;10423361;28;20140;-69
2022/07/28 05:19:13;;;;;;;3.03;1.48;;;;;;;13.21;58.48;100326.84;10423400;28;20519;-69
2022/07/28 05:24:15;;;;;;;4.72;1.70;;;;;;;13.68;57.21;100329.47;10423399;28;20049;-69
2022/07/28 05:29:17;;;;;;;2.53;1.40;;;;;;;13.96;56.74;100333.63;10423023;28;20510;-70
2022/07/28 05:34:19;;;;;;;3.75;1.30;;;;;;;14.26;56.31;100323.59;10423406;28;20426;-70
2022/07/28 05:39:23;;;;;;;3.58;1.50;;;;;;;14.51;55.94;100321.63;10410030;28;20056;-70
2022/07/28 05:44:25;;;;;;;5.30;1.60;;;;;;;14.89;53.69;100319.94;10422610;28;20159;-69
2022/07/28 05:49:27;;;;;;;4.22;1.38;;;;;;;14.70;54.19;100332.28;10422121;28;20417;-70
2022/07/28 05:54:28;;;;;;;4.80;1.35;;;;;;;14.99;52.77;100335.41;10421256;28;20040;-70
2022/07/28 05:59:30;;;;;;;2.80;1.60;;;;;;;15.31;52.63;100336.56;10422025;28;20053;-70
2022/07/28 06:04:32;;;;;;;4.25;1.38;;;;;;;15.85;50.58;100342.88;10420396;28;20076;-69
2022/07/28 06:09:34;;;;;;;3.15;1.52;;;;;;;16.23;49.46;100342.75;10421252;28;20049;-69
2022/07/28 06:14:35;;;;;;;9.27;1.38;;;;;;;16.26;48.84;100351.44;10420812;28;20037;-70
2022/07/28 06:19:37;;;;;;;2.45;1.35;;;;;;;16.97;48.23;100343.38;10420429;28;20049;-70
2022/07/28 06:24:39;;;;;;;3.35;1.42;;;;;;;17.51;46.03;100341.28;10420480;28;20045;-73
2022/07/28 06:29:40;;;;;;;4.35;1.65;;;;;;;17.96;46.97;100345.00;10421239;28;20051;-70
2022/07/28 06:34:42;;;;;;;3.42;1.95;;;;;;;17.88;47.46;100350.78;10420154;28;20091;-70
2022/07/28 06:39:44;;;;;;;5.65;1.70;;;;;;;17.99;46.11;100343.97;10420760;28;20038;-72
2022/07/28 06:44:46;;;;;;;4.25;1.80;;;;;;;17.38;47.58;100346.44;10420030;28;20049;-71
2022/07/28 06:49:59;;;;;;;7.03;1.77;;;;;;;17.97;47.04;100332.53;10420793;28;20195;-71
2022/07/28 06:55:02;;;;;;;3.35;1.60;;;;;;;17.76;46.50;100337.31;10420272;28;20057;-71
2022/07/28 07:00:07;;;;;;;7.00;2.05;;;;;;;18.16;45.92;100343.84;10420004;28;20069;-71
2022/07/28 07:05:11;;;;;;;4.60;2.00;;;;;;;18.39;44.40;100346.00;10420916;28;20087;-72
2022/07/28 07:10:12;;;;;;;2.50;1.85;;;;;;;18.99;43.21;100344.22;10422510;28;20045;-72
2022/07/28 07:15:14;;;;;;;8.98;2.00;;;;;;;19.22;43.17;100340.16;10419900;28;20041;-72
2022/07/28 07:20:16;;;;;;;3.85;2.00;;;;;;;19.39;43.05;100332.81;10421049;28;20049;-72
2022/07/28 07:25:18;;;;;;;7.07;2.42;;;;;;;19.60;42.52;100325.25;10419124;28;20069;-72
2022/07/28 07:30:20;;;;;;;3.88;2.00;;;;;;;19.40;42.66;100331.00;10417227;28;20053;-71
2022/07/28 07:35:22;;;;;;;7.97;3.38;;;;;;;19.53;42.25;100331.06;10419367;28;20053;-71
2022/07/28 07:40:24;;;;;;;8.93;3.05;;;;;;;19.54;43.05;100336.28;10419880;28;20080;-71
2022/07/28 07:45:26;;;;;;;11.20;5.00;;;;;;;20.27;41.01;100327.09;10417890;28;20111;-71
2022/07/28 07:50:28;;;;;;;18.13;14.40;;;;;;;20.96;39.16;100333.94;10418261;28;20555;-73
2022/07/28 07:55:30;;;;;;;19.58;12.68;;;;;;;21.14;39.11;100337.97;10420332;28;20407;-71
2022/07/28 08:00:38;;;;;;;13.70;11.82;;;;;;;21.52;39.20;100338.91;10420607;28;20093;-72
2022/07/28 08:05:40;;;;;;;15.35;12.30;;;;;;;21.61;38.62;100332.88;10421872;28;20045;-71
2022/07/28 08:10:41;;;;;;;15.05;11.10;;;;;;;22.14;36.56;100326.25;10406775;28;20055;-71
2022/07/28 08:15:43;;;;;;;17.65;11.45;;;;;;;22.26;37.02;100323.63;10427299;28;20491;-71
2022/07/28 08:20:45;;;;;;;11.77;8.02;;;;;;;22.57;36.22;100330.16;10426651;28;20046;-70
2022/07/28 08:25:47;;;;;;;10.68;7.22;;;;;;;22.73;35.82;100325.31;10425732;28;20045;-71
2022/07/28 08:30:48;;;;;;;3.85;2.17;;;;;;;23.02;35.49;100314.16;10407716;28;20514;-71
2022/07/28 08:35:50;;;;;;;3.50;1.65;;;;;;;22.91;35.56;100318.56;10424699;28;20446;-71
2022/07/28 08:40:55;;;;;;;3.22;1.17;;;;;;;22.86;33.62;100315.34;10407650;28;20056;-71
2022/07/28 08:46:05;;;;;;;3.37;1.40;;;;;;;23.31;34.10;100312.69;10409569;28;20454;-72
2022/07/28 08:51:09;;;;;;;2.80;1.10;;;;;;;23.30;33.33;100312.84;10408130;28;20537;-72
2022/07/28 08:56:14;;;;;;;3.22;1.23;;;;;;;24.00;32.95;100312.47;10426200;28;20059;-72
2022/07/28 09:01:16;;;;;;;3.78;0.88;;;;;;;23.94;32.31;100309.41;10425822;28;20047;-72
2022/07/28 09:06:20;;;;;;;3.90;1.25;;;;;;;24.13;32.33;100293.47;10424692;28;20041;-72
2022/07/28 09:11:27;;;;;;;3.30;1.20;;;;;;;24.63;31.12;100294.56;10424387;28;20049;-69
2022/07/28 09:16:29;;;;;;;2.67;1.15;;;;;;;24.14;32.20;100296.03;10407376;28;20434;-69
2022/07/28 09:21:31;;;;;;;2.28;1.30;;;;;;;25.19;31.30;100287.03;10423638;28;20064;-69
2022/07/28 09:26:33;;;;;;;5.28;1.48;;;;;;;24.29;32.21;100295.72;10424314;28;20407;-68
2022/07/28 09:31:50;;;;;;;2.80;1.10;;;;;;;24.61;32.04;100282.22;10423825;28;20077;-68
2022/07/28 09:36:58;;;;;;;1.85;1.20;;;;;;;25.53;30.58;100290.25;10424529;28;20041;-69
2022/07/28 09:42:00;;;;;;;2.70;1.30;;;;;;;25.73;29.92;100277.69;10422691;28;20514;-69
2022/07/28 09:47:20;;;;;;;3.53;1.33;;;;;;;26.00;29.86;100277.03;10422823;28;20056;-68
2022/07/28 09:52:30;;;;;;;4.68;1.40;;;;;;;26.12;29.66;100273.22;10423624;28;20471;-68
2022/07/28 09:57:34;;;;;;;2.88;1.10;;;;;;;27.34;27.66;100264.19;10423078;28;20065;-68
2022/07/28 10:02:38;;;;;;;4.80;1.10;;;;;;;26.90;28.24;100261.25;10421475;28;20497;-69
2022/07/28 10:07:49;;;;;;;3.55;1.45;;;;;;;27.56;28.81;100254.81;10405255;28;20136;-69
2022/07/28 10:13:04;;;;;;;2.28;1.17;;;;;;;27.17;27.94;100249.66;10421721;28;20464;-69
2022/07/28 10:18:05;;;;;;;1.77;0.85;;;;;;;27.44;27.59;100247.94;10421698;28;20064;-69
2022/07/28 10:23:12;;;;;;;2.53;0.90;;;;;;;27.16;27.85;100247.13;10403859;28;20116;-69
2022/07/28 10:28:18;;;;;;;2.10;0.82;;;;;;;27.87;27.15;100239.13;10421650;28;20476;-69
2022/07/28 10:33:22;;;;;;;1.90;0.85;;;;;;;27.85;26.43;100243.84;10420569;28;20384;-69
2022/07/28 10:38:33;;;;;;;3.60;0.98;;;;;;;27.19;26.75;100233.31;10421549;28;20042;-68
2022/07/28 10:43:35;;;;;;;3.42;0.70;;;;;;;26.91;27.31;100221.63;10421110;28;20041;-69
2022/07/28 10:48:43;;;;;;;4.22;0.70;;;;;;;27.29;27.24;100220.63;10421362;28;20041;-68
2022/07/28 10:54:04;;;;;;;1.83;0.80;;;;;;;27.62;26.75;100218.25;10421557;28;20041;-69
2022/07/28 10:59:21;;;;;;;2.03;0.60;;;;;;;28.16;25.53;100216.41;10421255;28;20111;-69
2022/07/28 11:04:51;;;;;;;2.22;0.50;;;;;;;28.29;25.63;100218.66;10421187;28;20428;-68
2022/07/28 11:10:12;;;;;;;2.38;0.80;;;;;;;28.17;24.49;100204.56;10421190;28;20428;-69
2022/07/28 11:15:35;;;;;;;2.08;0.47;;;;;;;28.23;25.07;100211.19;10421201;28;20049;-69
2022/07/28 11:20:51;;;;;;;2.90;0.70;;;;;;;28.54;25.16;100204.31;10419250;28;20057;-69
2022/07/28 11:26:18;;;;;;;1.00;0.50;;;;;;;28.35;26.12;100189.19;10385570;28;20041;-69
2022/07/28 11:31:42;;;;;;;1.40;0.60;;;;;;;28.26;24.55;100202.78;10418984;28;20045;-69
2022/07/28 11:37:02;;;;;;;1.42;0.50;;;;;;;28.50;23.54;100194.81;10417440;28;20053;-69
2022/07/28 11:42:24;;;;;;;10.18;0.70;;;;;;;27.91;24.05;100191.03;10418112;28;20037;-69
2022/07/28 11:47:28;;;;;;;2.45;0.70;;;;;;;28.44;25.77;100181.97;10418167;28;20045;-69
2022/07/28 11:52:30;;;;;;;1.48;0.75;;;;;;;28.55;24.82;100181.66;10399741;28;20042;-69
2022/07/28 11:57:40;;;;;;;1.50;0.60;;;;;;;28.06;24.42;100173.22;10417452;28;20430;-68
2022/07/28 12:02:41;;;;;;;2.63;0.60;;;;;;;27.73;25.35;100180.25;10416809;28;20402;-68
2022/07/28 12:07:46;;;;;;;3.15;0.70;;;;;;;27.50;25.33;100168.19;10417432;28;20088;-69
2022/07/28 12:12:53;;;;;;;3.47;0.77;;;;;;;28.48;24.96;100166.28;10417220;28;20105;-69
2022/07/28 12:17:57;;;;;;;1.50;0.60;;;;;;;28.71;24.61;100155.72;10416219;28;20048;-69
2022/07/28 12:23:05;;;;;;;4.37;0.70;;;;;;;28.56;23.81;100150.09;10416444;28;20056;-69
2022/07/28 12:28:17;;;;;;;1.92;0.80;;;;;;;28.31;24.72;100140.97;10416643;28;20041;-68
2022/07/28 12:33:23;;;;;;;2.25;0.70;;;;;;;27.94;25.36;100143.94;10399533;28;20414;-69
2022/07/28 12:38:30;;;;;;;2.75;0.52;;;;;;;27.50;25.51;100135.81;10416959;28;20042;-68
2022/07/28 12:43:33;;;;;;;2.33;0.85;;;;;;;28.07;25.23;100128.16;10415915;28;20034;-68
2022/07/28 12:48:39;;;;;;;3.55;0.68;;;;;;;28.16;24.55;100130.75;10397461;28;20049;-69
2022/07/28 12:53:50;;;;;;;3.10;0.70;;;;;;;27.75;24.71;100134.16;10415874;28;20034;-69
2022/07/28 12:59:07;;;;;;;7.30;0.90;;;;;;;27.38;25.20;100132.47;10421397;28;20057;-69
2022/07/28 13:04:08;;;;;;;5.88;0.70;;;;;;;26.78;25.80;100121.34;10423375;28;20553;-69
2022/07/28 13:09:21;;;;;;;2.55;0.77;;;;;;;27.06;25.16;100123.03;10423386;28;20103;-68
2022/07/28 13:14:42;;;;;;;2.85;0.60;;;;;;;27.12;25.33;100110.81;10422745;28;20108;-68
2022/07/28 13:19:45;;;;;;;3.13;0.80;;;;;;;27.68;23.93;100106.91;10421907;28;20053;-69
2022/07/28 13:24:46;;;;;;;1.58;0.70;;;;;;;27.71;24.40;100093.06;10404895;28;20439;-69
2022/07/28 13:29:48;;;;;;;1.50;0.90;;;;;;;27.51;24.37;100083.50;10422858;28;20518;-69
2022/07/28 13:34:50;;;;;;;1.77;0.77;;;;;;;27.29;25.63;100082.13;10422803;28;20376;-69
2022/07/28 13:39:52;;;;;;;1.45;0.70;;;;;;;27.23;25.53;100082.75;10421737;28;20558;-69
2022/07/28 13:44:55;;;;;;;5.70;0.70;;;;;;;26.78;25.74;100079.03;10421770;28;20442;-69
2022/07/28 13:49:57;;;;;;;3.38;1.05;;;;;;;26.74;25.80;100075.00;10420836;28;20488;-68
2022/07/28 13:54:59;;;;;;;2.22;0.80;;;;;;;26.95;25.89;100077.38;10421691;28;20430;-69
2022/07/28 14:00:05;;;;;;;2.78;1.00;;;;;;;26.61;25.78;100069.94;10423305;28;20501;-69
2022/07/28 14:05:08;;;;;;;3.60;0.70;;;;;;;27.19;25.25;100063.31;10421070;28;20044;-69
2022/07/28 14:10:11;;;;;;;2.05;0.80;;;;;;;26.74;26.43;100053.41;10420828;28;20079;-68
2022/07/28 14:15:13;;;;;;;2.63;0.80;;;;;;;27.02;25.68;100069.53;10421403;28;20464;-68
2022/07/28 14:20:15;;;;;;;4.93;0.90;;;;;;;26.85;25.75;100060.44;10420033;28;20483;-68
2022/07/28 14:25:17;;;;;;;2.50;0.77;;;;;;;27.31;25.51;100053.13;10419382;28;20041;-68
2022/07/28 14:30:24;;;;;;;3.67;1.15;;;;;;;26.96;25.26;100052.13;10420287;28;20128;-68
2022/07/28 14:35:26;;;;;;;2.53;1.10;;;;;;;26.95;25.15;100044.16;10420349;28;20075;-68
2022/07/28 14:40:29;;;;;;;3.72;0.85;;;;;;;27.16;25.32;100042.03;10414952;28;20046;-69
2022/07/28 14:45:31;;;;;;;1.13;0.70;;;;;;;27.01;25.18;100039.00;10418994;28;20045;-68
2022/07/28 14:50:55;;;;;;;1.52;1.10;;;;;;;27.13;25.92;100035.09;10419039;28;20064;-68
2022/07/28 14:55:57;;;;;;;1.92;0.82;;;;;;;27.02;24.99;100040.69;10418662;28;20041;-69
2022/07/28 15:00:59;;;;;;;2.78;1.38;;;;;;;26.96;24.98;100037.75;10420062;28;20099;-69
2022/07/28 15:06:01;;;;;;;2.35;1.25;;;;;;;27.04;25.03;100035.97;10420877;28;20045;-69
2022/07/28 15:11:02;;;;;;;2.95;0.98;;;;;;;27.21;24.88;100034.31;10424257;28;20096;-70
2022/07/28 15:16:04;;;;;;;2.47;1.23;;;;;;;27.12;24.77;100027.16;10419120;28;20083;-69
2022/07/28 15:21:11;;;;;;;3.10;1.42;;;;;;;27.34;24.55;100021.28;10421596;28;20065;-69
2022/07/28 15:26:13;;;;;;;2.55;1.15;;;;;;;27.08;25.15;100023.03;10425848;28;20095;-69
2022/07/28 15:31:15;;;;;;;2.60;0.90;;;;;;;27.19;25.21;100017.44;10422266;28;20045;-68
2022/07/28 15:36:23;;;;;;;3.50;0.88;;;;;;;26.76;25.56;100005.56;10418321;28;20045;-68
2022/07/28 15:41:24;;;;;;;3.75;1.27;;;;;;;26.65;25.85;100012.03;10417394;28;20038;-69
2022/07/28 15:46:27;;;;;;;2.58;1.20;;;;;;;27.16;25.68;100007.81;10416323;28;20056;-70
2022/07/28 15:51:30;;;;;;;2.33;1.10;;;;;;;27.42;25.09;100001.59;10417919;28;20045;-68
2022/07/28 15:56:35;;;;;;;3.70;0.80;;;;;;;27.33;25.02;100006.09;10417836;28;20041;-69
2022/07/28 16:01:38;;;;;;;3.83;1.10;;;;;;;27.50;24.96;99990.00;10417687;28;20045;-70
2022/07/28 16:12:06;;;;;;;2.15;1.50;;;;;;;27.58;25.04;99990.91;10416641;28;20042;-69
2022/07/28 16:17:14;;;;;;;2.83;1.38;;;;;;;27.44;25.00;99998.72;10417549;28;20042;-69
2022/07/28 16:22:19;;;;;;;4.68;1.00;;;;;;;27.11;25.09;99991.25;10417332;28;20041;-69
2022/07/28 16:27:20;;;;;;;4.70;2.20;;;;;;;26.82;25.72;99986.06;10398427;28;20121;-69
2022/07/28 16:32:22;;;;;;;4.28;1.30;;;;;;;26.70;25.87;99990.00;10421706;28;20503;-69
2022/07/28 16:37:24;;;;;;;3.17;1.10;;;;;;;26.49;26.15;99990.28;10423922;28;20056;-68
2022/07/28 16:42:26;;;;;;;3.40;1.48;;;;;;;26.05;26.29;99986.53;10423452;28;20044;-69
2022/07/28 16:47:27;;;;;;;2.78;1.80;;;;;;;25.83;26.70;99994.00;10423078;28;20054;-67
2022/07/28 16:52:29;;;;;;;2.28;1.70;;;;;;;25.52;27.09;99995.19;10422867;28;20045;-69
2022/07/28 16:57:31;;;;;;;3.63;1.00;;;;;;;25.33;26.92;99988.88;10422412;28;20045;-68
2022/07/28 17:02:32;;;;;;;2.47;1.00;;;;;;;25.37;26.49;99992.97;10421353;28;20046;-68
2022/07/28 17:07:40;;;;;;;2.47;1.02;;;;;;;25.59;26.59;99997.19;10424254;28;20065;-70
2022/07/28 17:12:46;;;;;;;84.60;4.90;;;;;;;25.59;27.12;100007.94;10423729;28;20042;-69
2022/07/28 17:17:51;;;;;;;5.00;1.30;;;;;;;25.52;26.44;100011.34;10435520;28;20073;-69
2022/07/28 17:22:52;;;;;;;1.13;0.70;;;;;;;25.40;26.74;100006.13;10429284;28;20073;-69
2022/07/28 17:27:54;;;;;;;2.83;1.20;;;;;;;25.04;27.38;100002.31;10423520;28;20053;-70
2022/07/28 17:32:58;;;;;;;3.05;1.13;;;;;;;24.92;27.09;100008.81;10434291;28;20494;-69
2022/07/28 17:38:08;;;;;;;2.55;1.05;;;;;;;25.00;27.06;100006.28;10462427;28;20080;-69
2022/07/28 17:43:10;;;;;;;2.63;0.88;;;;;;;24.87;27.26;100011.09;10461495;28;20036;-69
2022/07/28 17:48:12;;;;;;;2.28;0.90;;;;;;;24.83;27.12;100005.13;10462857;28;20095;-71
2022/07/28 17:53:14;;;;;;;1.98;0.90;;;;;;;24.72;27.16;100009.81;10405320;28;20052;-70
2022/07/28 17:58:23;;;;;;;2.35;0.75;;;;;;;24.69;27.33;100005.56;10404088;28;20044;-69
2022/07/28 18:03:28;;;;;;;2.70;0.88;;;;;;;24.65;27.38;100002.28;10420740;28;20045;-68
2022/07/28 18:08:50;;;;;;;3.25;0.90;;;;;;;24.50;27.49;100008.22;10421028;28;20041;-69
2022/07/28 18:13:52;;;;;;;3.42;0.90;;;;;;;24.37;27.86;100017.38;10421355;28;20080;-69
2022/07/28 18:19:05;;;;;;;2.13;1.00;;;;;;;24.44;27.49;100001.56;10420377;28;20045;-69
2022/07/28 18:24:07;;;;;;;3.20;1.00;;;;;;;24.36;27.32;100014.81;10432161;28;20402;-69
2022/07/28 18:29:08;;;;;;;2.17;1.00;;;;;;;24.13;27.79;100017.72;10429205;28;20056;-69
2022/07/28 18:34:10;;;;;;;1.52;0.85;;;;;;;23.94;28.04;100006.88;10402130;28;20182;-70
2022/07/28 18:39:19;;;;;;;2.00;1.00;;;;;;;23.70;28.39;100009.88;10419259;28;20133;-69
2022/07/28 18:44:25;;;;;;;1.75;1.02;;;;;;;23.82;28.43;100007.97;10382213;28;20042;-69
2022/07/28 18:49:27;;;;;;;1.35;0.80;;;;;;;23.71;28.41;100013.41;10378789;28;20399;-69
2022/07/28 18:54:37;;;;;;;2.03;1.08;;;;;;;23.61;28.48;100006.13;10379322;28;20504;-69
2022/07/28 18:59:39;;;;;;;2.70;0.98;;;;;;;23.60;28.69;100017.00;10362503;28;20125;-69
2022/07/28 19:04:48;;;;;;;4.00;1.10;;;;;;;23.20;29.21;100016.84;10379394;28;20053;-68
2022/07/28 19:09:49;;;;;;;7.28;1.17;;;;;;;23.10;29.96;100023.00;10378062;28;20088;-68
2022/07/28 19:14:51;;;;;;;3.78;1.50;;;;;;;22.79;31.06;100031.88;10377527;28;20053;-69
2022/07/28 19:19:58;;;;;;;3.55;1.30;;;;;;;22.72;31.92;100034.22;10378634;28;20069;-69
2022/07/28 19:25:01;;;;;;;4.53;1.10;;;;;;;22.61;32.13;100045.81;10377098;28;20111;-68
2022/07/28 19:30:05;;;;;;;4.63;1.20;;;;;;;22.48;32.67;100058.50;10378545;28;20400;-68
2022/07/28 19:35:09;;;;;;;5.75;1.42;;;;;;;22.20;33.21;100051.84;10377824;28;20484;-68
2022/07/28 19:40:11;;;;;;;3.08;1.25;;;;;;;22.06;32.81;100062.75;10376883;28;20045;-68
2022/07/28 19:45:15;;;;;;;5.57;1.17;;;;;;;21.81;33.10;100061.16;10360948;28;20488;-69
2022/07/28 19:50:17;;;;;;;2.58;1.50;;;;;;;21.61;33.53;100062.72;10376287;28;20073;-69
2022/07/28 19:55:18;;;;;;;4.30;1.27;;;;;;;21.39;34.25;100066.19;10376167;28;20046;-70
2022/07/28 20:00:20;;;;;;;5.57;1.40;;;;;;;21.41;34.12;100067.75;10376240;28;20042;-69
2022/07/28 20:05:23;;;;;;;2.10;1.52;;;;;;;20.87;35.15;100083.41;10376891;28;20038;-69
2022/07/28 20:10:24;;;;;;;5.65;1.50;;;;;;;20.64;36.28;100087.78;10366527;28;20165;-67
2022/07/28 20:15:26;;;;;;;10.27;1.40;;;;;;;20.74;36.23;100083.47;10383860;28;20575;-68
2022/07/28 20:20:28;;;;;;;2.45;1.38;;;;;;;20.70;36.07;100090.00;10385592;28;20056;-68
2022/07/28 20:25:29;;;;;;;2.05;1.52;;;;;;;20.66;36.06;100089.34;10383828;28;20407;-69
2022/07/28 20:30:32;;;;;;;2.40;1.52;;;;;;;20.51;36.45;100082.47;10383805;28;20053;-69
2022/07/28 20:35:34;;;;;;;3.28;1.25;;;;;;;20.32;37.19;100093.59;10364755;28;20046;-69
2022/07/28 20:40:35;;;;;;;2.35;1.42;;;;;;;20.37;37.68;100095.94;10383685;28;20105;-68
2022/07/28 20:45:37;;;;;;;2.58;1.20;;;;;;;20.14;37.39;100095.75;10382957;28;20404;-68
2022/07/28 20:50:39;;;;;;;2.45;1.13;;;;;;;19.91;37.49;100100.00;10382540;28;20073;-68
2022/07/28 20:55:40;;;;;;;2.55;1.30;;;;;;;19.63;38.89;100111.72;10382429;28;20042;-69
2022/07/28 21:00:42;;;;;;;3.08;1.20;;;;;;;20.04;36.87;100108.00;10382162;28;20492;-68
2022/07/28 21:05:44;;;;;;;2.50;1.40;;;;;;;19.80;37.88;100112.41;10382317;28;20128;-68
2022/07/28 21:10:46;;;;;;;3.55;1.30;;;;;;;19.73;38.29;100116.44;10363943;28;20050;-71
2022/07/28 21:15:48;;;;;;;2.45;1.30;;;;;;;19.60;38.41;100103.94;10381259;28;20044;-68
2022/07/28 21:20:49;;;;;;;2.75;0.95;;;;;;;19.65;38.38;100099.13;10380390;28;20046;-68
2022/07/28 21:25:51;;;;;;;2.03;1.08;;;;;;;19.73;38.50;100103.94;10380996;28;20045;-68
2022/07/28 21:30:53;;;;;;;2.95;1.23;;;;;;;19.67;39.40;100107.03;10380143;28;20052;-68
2022/07/28 21:35:54;;;;;;;2.88;1.20;;;;;;;19.31;40.12;100113.03;10379859;28;20033;-68
2022/07/28 21:40:56;;;;;;;1.85;0.90;;;;;;;19.24;40.55;100106.38;10380511;28;20056;-69
2022/07/28 21:45:57;;;;;;;4.57;0.80;;;;;;;19.12;41.02;100111.59;10380462;28;20053;-68
2022/07/28 21:50:59;;;;;;;2.47;1.00;;;;;;;18.78;41.66;100110.25;10380093;28;20073;-69
2022/07/28 21:56:01;;;;;;;3.00;1.20;;;;;;;18.79;42.14;100119.09;10379465;28;20042;-69
2022/07/28 22:01:02;;;;;;;5.45;1.27;;;;;;;18.99;41.47;100121.34;10379888;28;20496;-68
2022/07/28 22:06:06;;;;;;;2.83;1.10;;;;;;;18.93;41.09;100119.06;10361855;28;20041;-68
2022/07/28 22:11:07;;;;;;;2.25;1.02;;;;;;;18.65;41.61;100122.63;10378748;28;20104;-68
2022/07/28 22:16:09;;;;;;;2.08;1.17;;;;;;;18.36;42.82;100119.13;10379010;28;20053;-69
2022/07/28 22:21:11;;;;;;;3.22;1.20;;;;;;;18.59;42.20;100125.66;10378821;28;20068;-68
2022/07/28 22:26:12;;;;;;;3.05;1.15;;;;;;;18.43;42.30;100127.59;10377413;28;20070;-68
2022/07/28 22:31:14;;;;;;;2.63;0.90;;;;;;;18.40;42.12;100141.94;10379211;28;20057;-68
2022/07/28 22:36:16;;;;;;;3.05;0.95;;;;;;;18.48;42.24;100142.31;10377091;28;20044;-68
2022/07/28 22:41:17;;;;;;;4.32;1.48;;;;;;;18.20;43.41;100145.00;10377363;28;20447;-68
2022/07/28 22:46:19;;;;;;;2.17;1.00;;;;;;;18.14;43.65;100141.72;10377064;28;20107;-67
2022/07/28 22:51:21;;;;;;;2.55;1.17;;;;;;;17.88;44.26;100143.34;10376883;28;20096;-67
2022/07/28 22:56:22;;;;;;;1.42;1.08;;;;;;;17.89;44.01;100139.72;10376618;28;20045;-69
2022/07/28 23:01:24;;;;;;;2.50;1.13;;;;;;;18.05;43.99;100139.63;10376637;28;20045;-69
2022/07/28 23:06:27;;;;;;;2.35;1.00;;;;;;;18.08;43.51;100134.13;10358540;28;20038;-68
2022/07/28 23:11:28;;;;;;;2.10;0.95;;;;;;;18.06;44.45;100144.03;10376965;28;20054;-68
2022/07/28 23:16:30;;;;;;;2.83;1.10;;;;;;;18.01;44.04;100151.41;10375935;28;20033;-69
2022/07/28 23:21:36;;;;;;;2.20;1.10;;;;;;;17.60;45.30;100160.03;10375941;28;20046;-68
2022/07/28 23:26:37;;;;;;;1.17;0.80;;;;;;;17.52;45.56;100164.94;10376998;28;20076;-68
2022/07/28 23:31:39;;;;;;;1.85;0.90;;;;;;;17.55;45.76;100167.41;10375589;28;20056;-68